sensor_id;sensor_type;location;lat;lon;timestamp;P1;durP1;ratioP1;P2;durP2;ratioP2
32533;SDS011;18973;48.580;8.912;2022-08-19T00:01:41;4.75;;;2.80;;
32533;SDS011;18973;48.580;8.912;2022-08-19T00:04:09;5.50;;;2.78;;
32533;SDS011;18973;48.580;8.912;2022-08-19T00:06:39;3.45;;;1.95;;
32533;SDS011;18973;48.580;8.912;2022-08-19T00:09:07;3.50;;;2.10;;
32533;SDS011;18973;48.580;8.912;2022-08-19T00:11:35;4.72;;;2.42;;
32533;SDS011;18973;48.580;8.912;2022-08-19T00:14:02;5.35;;;2.58;;
32533;SDS011;18973;48.580;8.912;2022-08-19T00:16:29;3.40;;;1.85;;
32533;SDS011;18973;48.580;8.912;2022-08-19T00:18:55;3.08;;;1.52;;
32533;SDS011;18973;48.580;8.912;2022-08-19T00:21:22;3.00;;;1.73;;
32533;SDS011;18973;48.580;8.912;2022-08-19T00:23:49;5.18;;;2.10;;
32533;SDS011;18973;48.580;8.912;2022-08-19T00:26:15;4.47;;;2.47;;
32533;SDS011;18973;48.580;8.912;2022-08-19T00:28:41;3.35;;;1.92;;
32533;SDS011;18973;48.580;8.912;2022-08-19T00:31:07;4.68;;;2.28;;
32533;SDS011;18973;48.580;8.912;2022-08-19T00:33:34;4.28;;;2.47;;
32533;SDS011;18973;48.580;8.912;2022-08-19T00:36:00;4.43;;;2.10;;
32533;SDS011;18973;48.580;8.912;2022-08-19T00:38:29;4.03;;;2.58;;
32533;SDS011;18973;48.580;8.912;2022-08-19T00:40:55;3.45;;;2.13;;
32533;SDS011;18973;48.580;8.912;2022-08-19T00:43:22;4.68;;;2.13;;
32533;SDS011;18973;48.580;8.912;2022-08-19T00:45:50;4.72;;;1.60;;
32533;SDS011;18973;48.580;8.912;2022-08-19T00:48:17;3.55;;;2.50;;
32533;SDS011;18973;48.580;8.912;2022-08-19T00:50:44;4.53;;;2.63;;
32533;SDS011;18973;48.580;8.912;2022-08-19T00:53:13;4.20;;;2.80;;
32533;SDS011;18973;48.580;8.912;2022-08-19T00:55:42;3.50;;;2.03;;
32533;SDS011;18973;48.580;8.912;2022-08-19T00:58:12;4.72;;;2.47;;
32533;SDS011;18973;48.580;8.912;2022-08-19T01:00:40;3.67;;;2.38;;
32533;SDS011;18973;48.580;8.912;2022-08-19T01:03:07;4.70;;;2.60;;
32533;SDS011;18973;48.580;8.912;2022-08-19T01:05:35;3.47;;;2.00;;
32533;SDS011;18973;48.580;8.912;2022-08-19T01:08:02;4.68;;;2.50;;
32533;SDS011;18973;48.580;8.912;2022-08-19T01:10:31;3.13;;;2.83;;
32533;SDS011;18973;48.580;8.912;2022-08-19T01:13:00;3.58;;;2.58;;
32533;SDS011;18973;48.580;8.912;2022-08-19T01:15:29;4.88;;;2.60;;
32533;SDS011;18973;48.580;8.912;2022-08-19T01:17:58;3.08;;;2.38;;
32533;SDS011;18973;48.580;8.912;2022-08-19T01:20:26;4.60;;;2.85;;
32533;SDS011;18973;48.580;8.912;2022-08-19T01:22:53;3.03;;;1.85;;
32533;SDS011;18973;48.580;8.912;2022-08-19T01:25:29;5.95;;;3.17;;
32533;SDS011;18973;48.580;8.912;2022-08-19T01:28:06;4.70;;;2.70;;
32533;SDS011;18973;48.580;8.912;2022-08-19T01:30:33;5.68;;;2.72;;
32533;SDS011;18973;48.580;8.912;2022-08-19T01:33:00;3.70;;;2.55;;
32533;SDS011;18973;48.580;8.912;2022-08-19T01:35:29;4.95;;;2.95;;
32533;SDS011;18973;48.580;8.912;2022-08-19T01:40:28;4.57;;;2.65;;
32533;SDS011;18973;48.580;8.912;2022-08-19T01:42:56;4.85;;;2.72;;
32533;SDS011;18973;48.580;8.912;2022-08-19T01:45:24;4.55;;;2.78;;
32533;SDS011;18973;48.580;8.912;2022-08-19T01:47:51;3.97;;;2.70;;
32533;SDS011;18973;48.580;8.912;2022-08-19T01:50:17;4.47;;;2.63;;
32533;SDS011;18973;48.580;8.912;2022-08-19T01:52:43;4.28;;;2.60;;
32533;SDS011;18973;48.580;8.912;2022-08-19T01:55:14;3.47;;;2.17;;
32533;SDS011;18973;48.580;8.912;2022-08-19T01:57:43;7.25;;;3.00;;
32533;SDS011;18973;48.580;8.912;2022-08-19T02:00:12;5.28;;;2.92;;
32533;SDS011;18973;48.580;8.912;2022-08-19T02:02:40;5.53;;;3.00;;
32533;SDS011;18973;48.580;8.912;2022-08-19T02:05:07;4.75;;;3.25;;
32533;SDS011;18973;48.580;8.912;2022-08-19T02:07:33;5.43;;;2.83;;
32533;SDS011;18973;48.580;8.912;2022-08-19T02:10:02;6.07;;;3.55;;
32533;SDS011;18973;48.580;8.912;2022-08-19T02:12:29;6.30;;;3.17;;
32533;SDS011;18973;48.580;8.912;2022-08-19T02:14:55;3.17;;;2.30;;
32533;SDS011;18973;48.580;8.912;2022-08-19T02:17:21;5.93;;;3.92;;
32533;SDS011;18973;48.580;8.912;2022-08-19T02:19:47;4.22;;;2.90;;
32533;SDS011;18973;48.580;8.912;2022-08-19T02:22:14;6.40;;;3.05;;
32533;SDS011;18973;48.580;8.912;2022-08-19T02:24:39;4.50;;;2.70;;
32533;SDS011;18973;48.580;8.912;2022-08-19T02:27:05;4.38;;;2.55;;
32533;SDS011;18973;48.580;8.912;2022-08-19T02:29:31;6.30;;;2.92;;
32533;SDS011;18973;48.580;8.912;2022-08-19T02:31:57;5.20;;;2.97;;
32533;SDS011;18973;48.580;8.912;2022-08-19T02:34:23;8.25;;;3.83;;
32533;SDS011;18973;48.580;8.912;2022-08-19T02:36:50;9.82;;;4.72;;
32533;SDS011;18973;48.580;8.912;2022-08-19T02:39:17;6.18;;;2.97;;
32533;SDS011;18973;48.580;8.912;2022-08-19T02:41:43;3.70;;;2.83;;
32533;SDS011;18973;48.580;8.912;2022-08-19T02:44:09;7.32;;;3.53;;
32533;SDS011;18973;48.580;8.912;2022-08-19T02:46:35;3.95;;;2.35;;
32533;SDS011;18973;48.580;8.912;2022-08-19T02:49:03;4.40;;;3.00;;
32533;SDS011;18973;48.580;8.912;2022-08-19T02:51:40;4.38;;;2.30;;
32533;SDS011;18973;48.580;8.912;2022-08-19T02:54:07;3.67;;;2.72;;
32533;SDS011;18973;48.580;8.912;2022-08-19T02:56:35;6.15;;;3.75;;
32533;SDS011;18973;48.580;8.912;2022-08-19T02:59:02;6.82;;;3.17;;
32533;SDS011;18973;48.580;8.912;2022-08-19T03:01:32;5.80;;;2.92;;
32533;SDS011;18973;48.580;8.912;2022-08-19T03:03:59;7.25;;;3.08;;
32533;SDS011;18973;48.580;8.912;2022-08-19T03:06:28;4.63;;;2.75;;
32533;SDS011;18973;48.580;8.912;2022-08-19T03:08:54;4.10;;;2.72;;
32533;SDS011;18973;48.580;8.912;2022-08-19T03:11:24;5.38;;;2.75;;
32533;SDS011;18973;48.580;8.912;2022-08-19T03:13:54;5.07;;;2.40;;
32533;SDS011;18973;48.580;8.912;2022-08-19T03:16:22;5.78;;;3.05;;
32533;SDS011;18973;48.580;8.912;2022-08-19T03:18:49;6.38;;;3.28;;
32533;SDS011;18973;48.580;8.912;2022-08-19T03:21:17;6.13;;;3.08;;
32533;SDS011;18973;48.580;8.912;2022-08-19T03:23:45;5.80;;;3.28;;
32533;SDS011;18973;48.580;8.912;2022-08-19T03:26:11;4.28;;;3.30;;
32533;SDS011;18973;48.580;8.912;2022-08-19T03:28:38;7.00;;;3.95;;
32533;SDS011;18973;48.580;8.912;2022-08-19T03:31:05;9.40;;;2.60;;
32533;SDS011;18973;48.580;8.912;2022-08-19T03:33:34;3.15;;;2.30;;
32533;SDS011;18973;48.580;8.912;2022-08-19T03:36:05;4.70;;;2.78;;
32533;SDS011;18973;48.580;8.912;2022-08-19T03:38:32;5.78;;;3.25;;
32533;SDS011;18973;48.580;8.912;2022-08-19T03:41:10;7.50;;;3.85;;
32533;SDS011;18973;48.580;8.912;2022-08-19T03:43:39;5.68;;;3.15;;
32533;SDS011;18973;48.580;8.912;2022-08-19T03:46:10;2.83;;;2.53;;
32533;SDS011;18973;48.580;8.912;2022-08-19T03:48:38;6.78;;;3.35;;
32533;SDS011;18973;48.580;8.912;2022-08-19T03:51:05;6.53;;;3.45;;
32533;SDS011;18973;48.580;8.912;2022-08-19T03:53:33;7.70;;;4.07;;
32533;SDS011;18973;48.580;8.912;2022-08-19T03:56:00;6.47;;;3.72;;
32533;SDS011;18973;48.580;8.912;2022-08-19T03:58:27;4.97;;;3.78;;
32533;SDS011;18973;48.580;8.912;2022-08-19T04:00:57;5.13;;;3.60;;
32533;SDS011;18973;48.580;8.912;2022-08-19T04:03:24;5.97;;;3.75;;
32533;SDS011;18973;48.580;8.912;2022-08-19T04:05:51;5.82;;;3.22;;
32533;SDS011;18973;48.580;8.912;2022-08-19T04:08:18;5.00;;;3.13;;
32533;SDS011;18973;48.580;8.912;2022-08-19T04:10:47;5.40;;;3.22;;
32533;SDS011;18973;48.580;8.912;2022-08-19T04:13:17;4.88;;;3.75;;
32533;SDS011;18973;48.580;8.912;2022-08-19T04:15:44;6.38;;;3.90;;
32533;SDS011;18973;48.580;8.912;2022-08-19T04:18:12;5.68;;;2.97;;
32533;SDS011;18973;48.580;8.912;2022-08-19T04:20:45;6.90;;;3.55;;
32533;SDS011;18973;48.580;8.912;2022-08-19T04:23:13;5.18;;;3.42;;
32533;SDS011;18973;48.580;8.912;2022-08-19T04:25:40;7.60;;;3.63;;
32533;SDS011;18973;48.580;8.912;2022-08-19T04:28:07;6.68;;;3.78;;
32533;SDS011;18973;48.580;8.912;2022-08-19T04:30:40;4.28;;;2.67;;
32533;SDS011;18973;48.580;8.912;2022-08-19T04:33:08;6.85;;;3.70;;
32533;SDS011;18973;48.580;8.912;2022-08-19T04:35:41;6.75;;;4.10;;
32533;SDS011;18973;48.580;8.912;2022-08-19T04:40:45;5.28;;;3.30;;
32533;SDS011;18973;48.580;8.912;2022-08-19T04:43:31;6.10;;;3.83;;
32533;SDS011;18973;48.580;8.912;2022-08-19T04:46:04;5.55;;;3.88;;
32533;SDS011;18973;48.580;8.912;2022-08-19T04:48:31;5.60;;;3.40;;
32533;SDS011;18973;48.580;8.912;2022-08-19T04:50:57;5.80;;;3.67;;
32533;SDS011;18973;48.580;8.912;2022-08-19T04:53:27;5.75;;;3.72;;
32533;SDS011;18973;48.580;8.912;2022-08-19T04:55:55;6.45;;;3.72;;
32533;SDS011;18973;48.580;8.912;2022-08-19T04:58:23;5.63;;;3.55;;
32533;SDS011;18973;48.580;8.912;2022-08-19T05:00:49;6.05;;;3.88;;
32533;SDS011;18973;48.580;8.912;2022-08-19T05:03:15;5.32;;;3.35;;
32533;SDS011;18973;48.580;8.912;2022-08-19T05:05:42;8.20;;;3.63;;
32533;SDS011;18973;48.580;8.912;2022-08-19T05:08:09;5.95;;;3.17;;
32533;SDS011;18973;48.580;8.912;2022-08-19T05:10:36;9.63;;;3.70;;
32533;SDS011;18973;48.580;8.912;2022-08-19T05:13:03;6.82;;;4.00;;
32533;SDS011;18973;48.580;8.912;2022-08-19T05:15:29;7.15;;;4.30;;
32533;SDS011;18973;48.580;8.912;2022-08-19T05:17:55;4.03;;;2.90;;
32533;SDS011;18973;48.580;8.912;2022-08-19T05:20:39;5.63;;;3.67;;
32533;SDS011;18973;48.580;8.912;2022-08-19T05:23:23;5.85;;;4.30;;
32533;SDS011;18973;48.580;8.912;2022-08-19T05:25:50;6.97;;;4.22;;
32533;SDS011;18973;48.580;8.912;2022-08-19T05:28:17;8.60;;;5.28;;
32533;SDS011;18973;48.580;8.912;2022-08-19T05:30:43;6.07;;;4.00;;
32533;SDS011;18973;48.580;8.912;2022-08-19T05:33:10;6.05;;;3.50;;
32533;SDS011;18973;48.580;8.912;2022-08-19T05:35:36;6.07;;;3.47;;
32533;SDS011;18973;48.580;8.912;2022-08-19T05:38:04;6.93;;;3.60;;
32533;SDS011;18973;48.580;8.912;2022-08-19T05:40:33;5.88;;;3.97;;
32533;SDS011;18973;48.580;8.912;2022-08-19T05:43:01;6.40;;;3.95;;
32533;SDS011;18973;48.580;8.912;2022-08-19T05:45:28;12.13;;;4.45;;
32533;SDS011;18973;48.580;8.912;2022-08-19T05:47:54;8.38;;;3.90;;
32533;SDS011;18973;48.580;8.912;2022-08-19T05:50:20;7.38;;;4.07;;
32533;SDS011;18973;48.580;8.912;2022-08-19T05:52:46;6.22;;;3.55;;
32533;SDS011;18973;48.580;8.912;2022-08-19T05:55:12;7.10;;;4.68;;
32533;SDS011;18973;48.580;8.912;2022-08-19T05:57:38;6.07;;;4.10;;
32533;SDS011;18973;48.580;8.912;2022-08-19T06:00:05;5.75;;;4.68;;
32533;SDS011;18973;48.580;8.912;2022-08-19T06:02:35;6.38;;;3.28;;
32533;SDS011;18973;48.580;8.912;2022-08-19T06:05:02;7.05;;;3.88;;
32533;SDS011;18973;48.580;8.912;2022-08-19T06:07:28;6.25;;;3.08;;
32533;SDS011;18973;48.580;8.912;2022-08-19T06:09:54;5.85;;;3.95;;
32533;SDS011;18973;48.580;8.912;2022-08-19T06:12:21;6.57;;;3.58;;
32533;SDS011;18973;48.580;8.912;2022-08-19T06:14:58;5.63;;;3.22;;
32533;SDS011;18973;48.580;8.912;2022-08-19T06:17:29;5.50;;;3.67;;
32533;SDS011;18973;48.580;8.912;2022-08-19T06:19:55;7.65;;;3.92;;
32533;SDS011;18973;48.580;8.912;2022-08-19T06:22:21;5.00;;;3.67;;
32533;SDS011;18973;48.580;8.912;2022-08-19T06:24:47;5.95;;;3.70;;
32533;SDS011;18973;48.580;8.912;2022-08-19T06:27:17;6.03;;;3.55;;
32533;SDS011;18973;48.580;8.912;2022-08-19T06:29:43;5.25;;;4.13;;
32533;SDS011;18973;48.580;8.912;2022-08-19T06:32:11;7.18;;;4.07;;
32533;SDS011;18973;48.580;8.912;2022-08-19T06:34:39;5.20;;;3.60;;
32533;SDS011;18973;48.580;8.912;2022-08-19T06:37:06;5.63;;;3.42;;
32533;SDS011;18973;48.580;8.912;2022-08-19T06:39:34;5.28;;;3.80;;
32533;SDS011;18973;48.580;8.912;2022-08-19T06:42:03;6.35;;;3.35;;
32533;SDS011;18973;48.580;8.912;2022-08-19T06:44:33;7.65;;;4.07;;
32533;SDS011;18973;48.580;8.912;2022-08-19T06:47:01;6.28;;;3.97;;
32533;SDS011;18973;48.580;8.912;2022-08-19T06:49:28;4.97;;;2.85;;
32533;SDS011;18973;48.580;8.912;2022-08-19T06:51:56;6.10;;;3.45;;
32533;SDS011;18973;48.580;8.912;2022-08-19T06:54:22;5.05;;;3.25;;
32533;SDS011;18973;48.580;8.912;2022-08-19T06:56:48;5.90;;;3.55;;
32533;SDS011;18973;48.580;8.912;2022-08-19T06:59:15;3.70;;;2.90;;
32533;SDS011;18973;48.580;8.912;2022-08-19T07:01:44;7.10;;;3.20;;
32533;SDS011;18973;48.580;8.912;2022-08-19T07:04:16;7.20;;;4.05;;
32533;SDS011;18973;48.580;8.912;2022-08-19T07:06:46;4.22;;;3.33;;
32533;SDS011;18973;48.580;8.912;2022-08-19T07:09:13;5.78;;;3.47;;
32533;SDS011;18973;48.580;8.912;2022-08-19T07:11:46;6.72;;;3.42;;
32533;SDS011;18973;48.580;8.912;2022-08-19T07:14:14;4.95;;;3.03;;
32533;SDS011;18973;48.580;8.912;2022-08-19T07:16:42;3.90;;;3.53;;
32533;SDS011;18973;48.580;8.912;2022-08-19T07:19:10;6.78;;;4.10;;
32533;SDS011;18973;48.580;8.912;2022-08-19T07:21:37;3.90;;;3.20;;
32533;SDS011;18973;48.580;8.912;2022-08-19T07:24:03;6.75;;;3.42;;
32533;SDS011;18973;48.580;8.912;2022-08-19T07:26:30;5.60;;;3.53;;
32533;SDS011;18973;48.580;8.912;2022-08-19T07:28:58;4.05;;;2.97;;
32533;SDS011;18973;48.580;8.912;2022-08-19T07:31:26;4.75;;;3.47;;
32533;SDS011;18973;48.580;8.912;2022-08-19T07:33:53;5.95;;;3.42;;
32533;SDS011;18973;48.580;8.912;2022-08-19T07:36:24;3.92;;;2.55;;
32533;SDS011;18973;48.580;8.912;2022-08-19T07:38:57;6.32;;;3.40;;
32533;SDS011;18973;48.580;8.912;2022-08-19T07:41:25;4.97;;;3.40;;
32533;SDS011;18973;48.580;8.912;2022-08-19T07:43:53;6.18;;;2.85;;
32533;SDS011;18973;48.580;8.912;2022-08-19T07:46:22;3.17;;;2.33;;
32533;SDS011;18973;48.580;8.912;2022-08-19T07:48:49;4.47;;;3.10;;
32533;SDS011;18973;48.580;8.912;2022-08-19T07:51:17;5.07;;;3.05;;
32533;SDS011;18973;48.580;8.912;2022-08-19T07:53:44;6.53;;;3.35;;
32533;SDS011;18973;48.580;8.912;2022-08-19T07:56:14;3.78;;;2.63;;
32533;SDS011;18973;48.580;8.912;2022-08-19T07:58:41;4.97;;;2.80;;
32533;SDS011;18973;48.580;8.912;2022-08-19T08:01:13;3.95;;;2.85;;
32533;SDS011;18973;48.580;8.912;2022-08-19T08:03:41;6.63;;;3.38;;
32533;SDS011;18973;48.580;8.912;2022-08-19T08:06:26;4.45;;;2.72;;
32533;SDS011;18973;48.580;8.912;2022-08-19T08:09:11;5.65;;;3.55;;
32533;SDS011;18973;48.580;8.912;2022-08-19T08:11:50;4.22;;;3.28;;
32533;SDS011;18973;48.580;8.912;2022-08-19T08:14:20;2.47;;;1.95;;
32533;SDS011;18973;48.580;8.912;2022-08-19T08:16:48;3.05;;;2.25;;
32533;SDS011;18973;48.580;8.912;2022-08-19T08:19:15;4.55;;;2.92;;
32533;SDS011;18973;48.580;8.912;2022-08-19T08:21:43;2.72;;;2.08;;
32533;SDS011;18973;48.580;8.912;2022-08-19T08:24:09;4.35;;;2.30;;
32533;SDS011;18973;48.580;8.912;2022-08-19T08:26:36;4.57;;;3.55;;
32533;SDS011;18973;48.580;8.912;2022-08-19T08:29:02;3.83;;;2.05;;
32533;SDS011;18973;48.580;8.912;2022-08-19T08:31:28;3.58;;;2.42;;
32533;SDS011;18973;48.580;8.912;2022-08-19T08:33:54;4.55;;;2.20;;
32533;SDS011;18973;48.580;8.912;2022-08-19T08:36:20;3.65;;;2.35;;
32533;SDS011;18973;48.580;8.912;2022-08-19T08:38:50;2.55;;;2.03;;
32533;SDS011;18973;48.580;8.912;2022-08-19T08:44:02;2.92;;;1.95;;
32533;SDS011;18973;48.580;8.912;2022-08-19T08:46:36;2.85;;;1.77;;
32533;SDS011;18973;48.580;8.912;2022-08-19T08:49:16;2.80;;;2.03;;
32533;SDS011;18973;48.580;8.912;2022-08-19T08:52:32;2.65;;;2.10;;
32533;SDS011;18973;48.580;8.912;2022-08-19T08:54:44;3.85;;;2.47;;
32533;SDS011;18973;48.580;8.912;2022-08-19T08:57:14;3.75;;;2.33;;
32533;SDS011;18973;48.580;8.912;2022-08-19T08:59:45;2.88;;;2.03;;
32533;SDS011;18973;48.580;8.912;2022-08-19T09:02:17;3.80;;;2.80;;
32533;SDS011;18973;48.580;8.912;2022-08-19T09:04:43;3.08;;;2.40;;
32533;SDS011;18973;48.580;8.912;2022-08-19T09:07:19;2.85;;;2.05;;
32533;SDS011;18973;48.580;8.912;2022-08-19T09:09:52;3.55;;;2.42;;
32533;SDS011;18973;48.580;8.912;2022-08-19T09:15:05;3.90;;;2.58;;
32533;SDS011;18973;48.580;8.912;2022-08-19T09:17:33;2.90;;;1.67;;
32533;SDS011;18973;48.580;8.912;2022-08-19T09:20:01;2.72;;;2.13;;
32533;SDS011;18973;48.580;8.912;2022-08-19T09:22:40;3.08;;;1.95;;
32533;SDS011;18973;48.580;8.912;2022-08-19T09:25:09;3.67;;;2.33;;
32533;SDS011;18973;48.580;8.912;2022-08-19T09:27:38;3.33;;;1.52;;
32533;SDS011;18973;48.580;8.912;2022-08-19T09:30:06;3.35;;;2.08;;
32533;SDS011;18973;48.580;8.912;2022-08-19T09:32:34;2.97;;;1.73;;
32533;SDS011;18973;48.580;8.912;2022-08-19T09:35:01;14.30;;;3.60;;
32533;SDS011;18973;48.580;8.912;2022-08-19T09:37:26;5.32;;;2.47;;
32533;SDS011;18973;48.580;8.912;2022-08-19T09:39:52;3.35;;;2.70;;
32533;SDS011;18973;48.580;8.912;2022-08-19T09:42:19;2.47;;;1.90;;
32533;SDS011;18973;48.580;8.912;2022-08-19T09:44:45;4.18;;;2.63;;
32533;SDS011;18973;48.580;8.912;2022-08-19T09:47:12;4.03;;;2.72;;
32533;SDS011;18973;48.580;8.912;2022-08-19T09:49:38;4.15;;;2.67;;
32533;SDS011;18973;48.580;8.912;2022-08-19T09:52:05;4.32;;;2.92;;
32533;SDS011;18973;48.580;8.912;2022-08-19T09:54:34;3.55;;;2.50;;
32533;SDS011;18973;48.580;8.912;2022-08-19T09:57:00;2.88;;;1.88;;
32533;SDS011;18973;48.580;8.912;2022-08-19T09:59:26;3.63;;;2.20;;
32533;SDS011;18973;48.580;8.912;2022-08-19T10:01:52;3.33;;;2.30;;
32533;SDS011;18973;48.580;8.912;2022-08-19T10:04:18;3.70;;;2.65;;
32533;SDS011;18973;48.580;8.912;2022-08-19T10:06:47;4.53;;;2.45;;
32533;SDS011;18973;48.580;8.912;2022-08-19T10:09:15;4.13;;;2.92;;
32533;SDS011;18973;48.580;8.912;2022-08-19T10:11:42;3.97;;;2.22;;
32533;SDS011;18973;48.580;8.912;2022-08-19T10:14:14;3.83;;;2.38;;
32533;SDS011;18973;48.580;8.912;2022-08-19T10:16:41;2.45;;;2.13;;
32533;SDS011;18973;48.580;8.912;2022-08-19T10:19:08;2.90;;;2.35;;
32533;SDS011;18973;48.580;8.912;2022-08-19T10:21:34;3.83;;;3.00;;
32533;SDS011;18973;48.580;8.912;2022-08-19T10:24:01;3.70;;;2.28;;
32533;SDS011;18973;48.580;8.912;2022-08-19T10:26:30;4.35;;;2.58;;
32533;SDS011;18973;48.580;8.912;2022-08-19T10:29:00;4.47;;;2.80;;
32533;SDS011;18973;48.580;8.912;2022-08-19T10:31:28;3.17;;;2.08;;
32533;SDS011;18973;48.580;8.912;2022-08-19T10:33:55;4.97;;;2.47;;
32533;SDS011;18973;48.580;8.912;2022-08-19T10:36:26;3.97;;;2.17;;
32533;SDS011;18973;48.580;8.912;2022-08-19T10:38:58;3.42;;;2.17;;
32533;SDS011;18973;48.580;8.912;2022-08-19T10:41:27;3.13;;;2.42;;
32533;SDS011;18973;48.580;8.912;2022-08-19T10:43:55;2.67;;;2.38;;
32533;SDS011;18973;48.580;8.912;2022-08-19T10:46:23;3.42;;;2.50;;
32533;SDS011;18973;48.580;8.912;2022-08-19T10:48:50;3.35;;;2.28;;
32533;SDS011;18973;48.580;8.912;2022-08-19T10:51:17;2.90;;;1.83;;
32533;SDS011;18973;48.580;8.912;2022-08-19T10:54:01;3.38;;;2.08;;
32533;SDS011;18973;48.580;8.912;2022-08-19T10:56:28;4.25;;;2.10;;
32533;SDS011;18973;48.580;8.912;2022-08-19T10:59:13;4.28;;;2.90;;
32533;SDS011;18973;48.580;8.912;2022-08-19T11:01:41;3.10;;;1.98;;
32533;SDS011;18973;48.580;8.912;2022-08-19T11:04:08;3.33;;;1.77;;
32533;SDS011;18973;48.580;8.912;2022-08-19T11:06:36;2.60;;;1.67;;
32533;SDS011;18973;48.580;8.912;2022-08-19T11:09:03;2.55;;;1.63;;
32533;SDS011;18973;48.580;8.912;2022-08-19T11:11:30;3.15;;;2.03;;
32533;SDS011;18973;48.580;8.912;2022-08-19T11:13:57;3.60;;;2.03;;
32533;SDS011;18973;48.580;8.912;2022-08-19T11:16:23;3.28;;;1.83;;
32533;SDS011;18973;48.580;8.912;2022-08-19T11:18:56;2.70;;;1.80;;
32533;SDS011;18973;48.580;8.912;2022-08-19T11:21:24;2.85;;;1.70;;
32533;SDS011;18973;48.580;8.912;2022-08-19T11:23:54;3.17;;;1.77;;
32533;SDS011;18973;48.580;8.912;2022-08-19T11:26:23;2.28;;;1.52;;
32533;SDS011;18973;48.580;8.912;2022-08-19T11:28:49;2.97;;;2.00;;
32533;SDS011;18973;48.580;8.912;2022-08-19T11:31:21;3.55;;;2.35;;
32533;SDS011;18973;48.580;8.912;2022-08-19T11:33:48;2.00;;;1.80;;
32533;SDS011;18973;48.580;8.912;2022-08-19T11:36:18;3.00;;;2.08;;
32533;SDS011;18973;48.580;8.912;2022-08-19T11:38:46;1.67;;;1.40;;
32533;SDS011;18973;48.580;8.912;2022-08-19T11:41:14;5.07;;;2.33;;
32533;SDS011;18973;48.580;8.912;2022-08-19T11:43:41;2.28;;;1.80;;
32533;SDS011;18973;48.580;8.912;2022-08-19T11:46:07;2.17;;;1.38;;
32533;SDS011;18973;48.580;8.912;2022-08-19T11:48:35;2.30;;;1.23;;
32533;SDS011;18973;48.580;8.912;2022-08-19T11:51:12;2.38;;;1.45;;
32533;SDS011;18973;48.580;8.912;2022-08-19T11:53:40;2.05;;;1.40;;
32533;SDS011;18973;48.580;8.912;2022-08-19T11:56:07;2.85;;;1.45;;
32533;SDS011;18973;48.580;8.912;2022-08-19T11:58:34;1.23;;;1.13;;
32533;SDS011;18973;48.580;8.912;2022-08-19T12:01:00;1.88;;;1.35;;
32533;SDS011;18973;48.580;8.912;2022-08-19T12:03:26;1.90;;;1.73;;
32533;SDS011;18973;48.580;8.912;2022-08-19T12:05:52;1.00;;;0.90;;
32533;SDS011;18973;48.580;8.912;2022-08-19T12:08:18;1.75;;;1.20;;
32533;SDS011;18973;48.580;8.912;2022-08-19T12:10:45;2.05;;;1.45;;
32533;SDS011;18973;48.580;8.912;2022-08-19T12:13:11;1.30;;;0.93;;
32533;SDS011;18973;48.580;8.912;2022-08-19T12:15:45;1.52;;;1.17;;
32533;SDS011;18973;48.580;8.912;2022-08-19T12:18:12;3.28;;;1.10;;
32533;SDS011;18973;48.580;8.912;2022-08-19T12:20:42;1.17;;;0.98;;
32533;SDS011;18973;48.580;8.912;2022-08-19T12:23:08;1.05;;;0.98;;
32533;SDS011;18973;48.580;8.912;2022-08-19T12:25:35;1.20;;;1.05;;
32533;SDS011;18973;48.580;8.912;2022-08-19T12:28:02;1.85;;;1.48;;
32533;SDS011;18973;48.580;8.912;2022-08-19T12:30:28;1.50;;;1.40;;
32533;SDS011;18973;48.580;8.912;2022-08-19T12:32:54;1.98;;;1.38;;
32533;SDS011;18973;48.580;8.912;2022-08-19T12:35:20;1.67;;;1.33;;
32533;SDS011;18973;48.580;8.912;2022-08-19T12:37:47;1.73;;;1.42;;
32533;SDS011;18973;48.580;8.912;2022-08-19T12:40:14;1.60;;;0.65;;
32533;SDS011;18973;48.580;8.912;2022-08-19T12:42:40;1.45;;;1.17;;
32533;SDS011;18973;48.580;8.912;2022-08-19T12:45:07;1.63;;;1.10;;
32533;SDS011;18973;48.580;8.912;2022-08-19T12:47:38;1.48;;;1.25;;
32533;SDS011;18973;48.580;8.912;2022-08-19T12:50:04;1.48;;;1.05;;
32533;SDS011;18973;48.580;8.912;2022-08-19T12:52:35;2.60;;;1.90;;
32533;SDS011;18973;48.580;8.912;2022-08-19T12:55:06;5.07;;;3.03;;
32533;SDS011;18973;48.580;8.912;2022-08-19T12:57:32;3.45;;;2.28;;
32533;SDS011;18973;48.580;8.912;2022-08-19T13:00:02;3.08;;;2.22;;
32533;SDS011;18973;48.580;8.912;2022-08-19T13:02:40;2.75;;;1.80;;
32533;SDS011;18973;48.580;8.912;2022-08-19T13:05:10;3.80;;;2.20;;
32533;SDS011;18973;48.580;8.912;2022-08-19T13:07:39;3.47;;;2.10;;
32533;SDS011;18973;48.580;8.912;2022-08-19T13:10:06;3.50;;;2.17;;
32533;SDS011;18973;48.580;8.912;2022-08-19T13:12:33;2.55;;;2.22;;
32533;SDS011;18973;48.580;8.912;2022-08-19T13:15:00;4.95;;;2.83;;
32533;SDS011;18973;48.580;8.912;2022-08-19T13:17:26;2.88;;;2.05;;
32533;SDS011;18973;48.580;8.912;2022-08-19T13:19:52;5.65;;;2.83;;
32533;SDS011;18973;48.580;8.912;2022-08-19T13:22:18;2.70;;;1.88;;
32533;SDS011;18973;48.580;8.912;2022-08-19T13:24:44;2.97;;;2.28;;
32533;SDS011;18973;48.580;8.912;2022-08-19T13:27:09;3.20;;;2.30;;
32533;SDS011;18973;48.580;8.912;2022-08-19T13:29:35;3.45;;;2.60;;
32533;SDS011;18973;48.580;8.912;2022-08-19T13:32:19;3.60;;;2.08;;
32533;SDS011;18973;48.580;8.912;2022-08-19T13:35:04;3.70;;;2.42;;
32533;SDS011;18973;48.580;8.912;2022-08-19T13:37:30;2.65;;;2.00;;
32533;SDS011;18973;48.580;8.912;2022-08-19T13:40:09;3.40;;;2.33;;
32533;SDS011;18973;48.580;8.912;2022-08-19T13:42:38;3.97;;;2.28;;
32533;SDS011;18973;48.580;8.912;2022-08-19T13:45:05;6.13;;;3.20;;
32533;SDS011;18973;48.580;8.912;2022-08-19T13:47:32;3.40;;;2.35;;
32533;SDS011;18973;48.580;8.912;2022-08-19T13:50:07;2.65;;;1.77;;
32533;SDS011;18973;48.580;8.912;2022-08-19T13:52:34;2.70;;;1.83;;
32533;SDS011;18973;48.580;8.912;2022-08-19T13:55:00;3.08;;;2.47;;
32533;SDS011;18973;48.580;8.912;2022-08-19T13:57:26;3.90;;;2.92;;
32533;SDS011;18973;48.580;8.912;2022-08-19T13:59:51;3.42;;;2.38;;
32533;SDS011;18973;48.580;8.912;2022-08-19T14:02:17;5.60;;;3.22;;
32533;SDS011;18973;48.580;8.912;2022-08-19T14:04:43;3.17;;;2.63;;
32533;SDS011;18973;48.580;8.912;2022-08-19T14:07:09;3.67;;;2.28;;
32533;SDS011;18973;48.580;8.912;2022-08-19T14:09:35;4.82;;;3.00;;
32533;SDS011;18973;48.580;8.912;2022-08-19T14:12:01;3.50;;;2.22;;
32533;SDS011;18973;48.580;8.912;2022-08-19T14:14:27;2.38;;;1.67;;
32533;SDS011;18973;48.580;8.912;2022-08-19T14:16:54;2.95;;;2.30;;
32533;SDS011;18973;48.580;8.912;2022-08-19T14:19:22;2.72;;;2.03;;
32533;SDS011;18973;48.580;8.912;2022-08-19T14:21:48;4.32;;;2.13;;
32533;SDS011;18973;48.580;8.912;2022-08-19T14:24:14;2.13;;;1.90;;
32533;SDS011;18973;48.580;8.912;2022-08-19T14:26:40;1.98;;;1.65;;
32533;SDS011;18973;48.580;8.912;2022-08-19T14:29:06;1.88;;;1.45;;
32533;SDS011;18973;48.580;8.912;2022-08-19T14:31:32;2.63;;;1.90;;
32533;SDS011;18973;48.580;8.912;2022-08-19T14:33:57;2.85;;;1.70;;
32533;SDS011;18973;48.580;8.912;2022-08-19T14:36:24;3.88;;;1.40;;
32533;SDS011;18973;48.580;8.912;2022-08-19T14:38:50;1.77;;;1.65;;
32533;SDS011;18973;48.580;8.912;2022-08-19T14:41:19;1.40;;;1.17;;
32533;SDS011;18973;48.580;8.912;2022-08-19T14:43:48;2.10;;;1.75;;
32533;SDS011;18973;48.580;8.912;2022-08-19T14:46:16;2.55;;;1.85;;
32533;SDS011;18973;48.580;8.912;2022-08-19T14:48:45;1.98;;;1.13;;
32533;SDS011;18973;48.580;8.912;2022-08-19T14:51:12;1.30;;;1.20;;
32533;SDS011;18973;48.580;8.912;2022-08-19T14:53:39;1.58;;;1.48;;
32533;SDS011;18973;48.580;8.912;2022-08-19T14:56:10;1.80;;;1.65;;
32533;SDS011;18973;48.580;8.912;2022-08-19T14:58:39;1.42;;;1.33;;
32533;SDS011;18973;48.580;8.912;2022-08-19T15:01:06;1.92;;;1.35;;
32533;SDS011;18973;48.580;8.912;2022-08-19T15:03:32;2.55;;;1.58;;
32533;SDS011;18973;48.580;8.912;2022-08-19T15:06:02;1.85;;;1.25;;